Terminal Aerodrome Forecast
Issued by NWS Louisville, KY

Home | Current Version | Previous Version | Text Only | Print | Product List | Glossary On
Versions: 1 2 3 4 5 6 7 8 9 10 11 12 13 14
000
FTUS43 KLMK 242300
TAFLEX
TAF
KLEX 242320Z 2500/2524 13004KT P6SM SCT090 OVC150
     FM250800 14005KT P6SM VCSH BKN050
     FM251000 14008KT 4SM -SHRA VCTS BKN015CB
     FM251700 18009KT P6SM VCSH BKN020=

USA.gov is the U.S. government's official web portal to all federal, state and local government web resources and services.